Time;durP1;ratioP1;P1;durP2;ratioP2;P2;SDS_P1;SDS_P2;PMS_P1;PMS_P2;Temp;Humidity;BMP_temperature;BMP_pressure;BME280_temperature;BME280_humidity;BME280_pressure;Samples;Min_cycle;Max_cycle;Signal;HPM_P1;HPM_P2
2022/03/28 00:01:44;;;;;;;;;;;;;;;6.63;100.00;102926.75;5098623;28;19915;-69
2022/03/28 00:04:09;;;;;;;;;;;;;;;6.60;100.00;102928.47;5116283;28;19927;-68
2022/03/28 00:06:34;;;;;;;;;;;;;;;6.57;100.00;102924.03;5098906;28;19992;-69
2022/03/28 00:08:59;;;;;;;;;;;;;;;6.55;100.00;102930.19;5098685;28;19915;-69
2022/03/28 00:11:26;;;;;;;;;;;;;;;6.56;100.00;102924.91;5098492;28;19923;-68
2022/03/28 00:13:52;;;;;;;;;;;;;;;6.55;100.00;102927.53;5116914;28;20248;-69
2022/03/28 00:16:17;;;;;;;;;;;;;;;6.56;100.00;102924.03;5116582;28;19920;-69
2022/03/28 00:18:42;;;;;;;;;;;;;;;6.45;100.00;102923.94;5116638;28;19919;-69
2022/03/28 00:21:08;;;;;;;;;;;;;;;6.46;100.00;102922.22;5098519;28;19920;-69
2022/03/28 00:23:33;;;;;;;;;;;;;;;6.42;100.00;102916.03;5116657;28;19915;-69
2022/03/28 00:25:59;;;;;;;;;;;;;;;6.40;100.00;102923.03;5116329;28;19923;-69
2022/03/28 00:28:24;;;;;;;;;;;;;;;6.38;100.00;102924.81;5116481;28;19940;-69
2022/03/28 00:30:50;;;;;;;;;;;;;;;6.36;100.00;102936.19;5098152;28;19915;-69
2022/03/28 00:33:15;;;;;;;;;;;;;;;6.35;100.00;102927.38;5108552;27;20278;-68
2022/03/28 00:35:41;;;;;;;;;;;;;;;6.25;100.00;102930.84;5133849;27;20285;-69
2022/03/28 00:38:06;;;;;;;;;;;;;;;6.27;100.00;102930.84;5138002;27;19916;-69
2022/03/28 00:40:38;;;;;;;;;;;;;;;6.14;100.00;102928.13;5136646;27;19922;-69
2022/03/28 00:43:05;;;;;;;;;;;;;;;6.09;100.00;102919.28;5130936;27;19916;-69
2022/03/28 00:45:31;;;;;;;;;;;;;;;6.09;100.00;102921.03;5107176;28;20264;-69
2022/03/28 00:47:56;;;;;;;;;;;;;;;6.05;100.00;102914.84;5117937;27;19965;-69
2022/03/28 00:50:59;;;;;;;;;;;;;;;6.05;100.00;102917.47;5136709;27;19919;-68
2022/03/28 00:53:38;;;;;;;;;;;;;;;6.00;100.00;102918.31;5118293;27;19956;-69
2022/03/28 00:56:03;;;;;;;;;;;;;;;6.08;100.00;102909.59;5118534;27;19916;-68
2022/03/28 00:58:29;;;;;;;;;;;;;;;6.28;100.00;102915.03;5137516;27;20031;-69
2022/03/28 01:00:54;;;;;;;;;;;;;;;6.31;100.00;102916.78;5118746;27;20271;-68
2022/03/28 01:03:19;;;;;;;;;;;;;;;6.29;100.00;102913.28;5136609;27;20431;-69
2022/03/28 01:05:44;;;;;;;;;;;;;;;6.20;100.00;102901.78;5136543;27;19927;-69
2022/03/28 01:08:09;;;;;;;;;;;;;;;6.14;100.00;102892.94;5136456;27;19919;-70
2022/03/28 01:10:35;;;;;;;;;;;;;;;6.06;100.00;102890.25;5117800;27;19916;-69
2022/03/28 01:13:00;;;;;;;;;;;;;;;6.01;100.00;102884.03;5136223;27;19915;-69
2022/03/28 01:15:25;;;;;;;;;;;;;;;5.99;100.00;102877.88;5136204;27;19916;-69
2022/03/28 01:18:06;;;;;;;;;;;;;;;5.93;100.00;102883.09;5117440;27;19998;-69
2022/03/28 01:20:32;;;;;;;;;;;;;;;5.88;100.00;102871.63;5117237;27;20014;-69
2022/03/28 01:22:57;;;;;;;;;;;;;;;5.84;100.00;102876.84;5135918;27;19966;-69
2022/03/28 01:25:24;;;;;;;;;;;;;;;5.80;100.00;102875.91;5135864;27;19915;-69
2022/03/28 01:27:52;;;;;;;;;;;;;;;5.78;100.00;102876.75;5136163;27;19916;-69
2022/03/28 01:30:17;;;;;;;;;;;;;;;5.73;100.00;102879.38;5117640;27;19964;-69
2022/03/28 01:32:43;;;;;;;;;;;;;;;5.73;100.00;102871.47;5135942;27;19915;-69
2022/03/28 01:35:08;;;;;;;;;;;;;;;5.68;100.00;102870.53;5117459;27;19919;-69
2022/03/28 01:37:33;;;;;;;;;;;;;;;5.66;100.00;102869.63;5117073;27;19915;-69
2022/03/28 01:39:58;;;;;;;;;;;;;;;5.63;100.00;102866.94;5135530;27;19959;-69
2022/03/28 01:42:24;;;;;;;;;;;;;;;5.60;100.00;102866.94;5135497;27;19958;-69
2022/03/28 01:44:49;;;;;;;;;;;;;;;5.57;100.00;102864.25;5117167;27;19916;-69
2022/03/28 01:47:15;;;;;;;;;;;;;;;5.56;100.00;102866.88;5135461;27;19968;-69
2022/03/28 01:49:40;;;;;;;;;;;;;;;5.52;100.00;102858.06;5117151;27;19981;-69
2022/03/28 01:52:05;;;;;;;;;;;;;;;5.49;100.00;102858.03;5135433;27;19926;-68
2022/03/28 01:54:30;;;;;;;;;;;;;;;5.49;100.00;102858.03;5135461;27;19915;-69
2022/03/28 01:56:56;;;;;;;;;;;;;;;5.48;100.00;102860.66;5135432;27;19915;-69
2022/03/28 01:59:21;;;;;;;;;;;;;;;5.47;100.00;102859.75;5116827;27;19958;-69
2022/03/28 02:01:46;;;;;;;;;;;;;;;5.46;100.00;102851.84;5135190;27;20002;-69
2022/03/28 02:04:11;;;;;;;;;;;;;;;5.46;100.00;102842.19;5116753;27;20025;-69
2022/03/28 02:06:36;;;;;;;;;;;;;;;5.42;100.00;102858.81;5135065;27;19916;-69
2022/03/28 02:09:02;;;;;;;;;;;;;;;5.40;100.00;102852.69;5135386;27;20451;-69
2022/03/28 02:11:28;;;;;;;;;;;;;;;5.33;100.00;102856.09;5116720;27;19919;-69
2022/03/28 02:13:54;;;;;;;;;;;;;;;5.33;100.00;102849.94;5135353;27;20002;-69
2022/03/28 02:16:19;;;;;;;;;;;;;;;5.33;100.00;102844.66;5135613;27;20080;-69
2022/03/28 02:18:44;;;;;;;;;;;;;;;5.33;100.00;102853.47;5112968;28;19920;-69
2022/03/28 02:21:09;;;;;;;;;;;;;;;5.34;100.00;102852.59;5114347;28;20002;-69
2022/03/28 02:23:35;;;;;;;;;;;;;;;5.31;100.00;102843.78;5114238;28;19916;-69
2022/03/28 02:26:00;;;;;;;;;;;;;;;5.27;100.00;102842.88;5112699;28;19916;-69
2022/03/28 02:28:25;;;;;;;;;;;;;;;5.26;100.00;102837.59;5112916;28;20389;-69
2022/03/28 02:30:51;;;;;;;;;;;;;;;5.21;100.00;102839.28;5113049;28;20251;-68
2022/03/28 02:33:38;;;;;;;;;;;;;;;5.18;100.00;102845.41;5108812;28;19916;-69
2022/03/28 02:36:03;;;;;;;;;;;;;;;5.15;100.00;102832.22;5096839;28;19916;-68
2022/03/28 02:38:29;;;;;;;;;;;;;;;5.14;100.00;102827.78;5112832;28;20013;-69
2022/03/28 02:40:54;;;;;;;;;;;;;;;5.11;100.00;102827.75;5113953;28;20037;-69
2022/03/28 02:43:21;;;;;;;;;;;;;;;5.08;100.00;102827.72;5111858;28;19916;-69
2022/03/28 02:45:47;;;;;;;;;;;;;;;5.04;100.00;102827.69;5112767;28;19916;-69
2022/03/28 02:48:23;;;;;;;;;;;;;;;5.02;100.00;102825.03;5114076;28;19916;-68
2022/03/28 02:50:49;;;;;;;;;;;;;;;4.98;100.00;102822.34;5114836;28;20395;-68
2022/03/28 02:53:15;;;;;;;;;;;;;;;4.97;100.00;102816.19;5112723;28;20074;-69
2022/03/28 02:55:40;;;;;;;;;;;;;;;4.96;100.00;102816.16;5112660;28;19958;-68
2022/03/28 02:58:05;;;;;;;;;;;;;;;4.94;100.00;102802.97;5112765;28;19916;-68
2022/03/28 03:00:31;;;;;;;;;;;;;;;4.97;100.00;102802.13;5113793;28;20313;-69
2022/03/28 03:02:57;;;;;;;;;;;;;;;4.95;100.00;102809.16;5112727;28;20457;-69
2022/03/28 03:05:23;;;;;;;;;;;;;;;4.95;100.00;102809.16;5114092;28;20405;-68
2022/03/28 03:07:49;;;;;;;;;;;;;;;4.94;100.00;102813.53;5112659;28;19924;-69
2022/03/28 03:10:14;;;;;;;;;;;;;;;4.90;100.00;102802.94;5113740;28;19927;-69
2022/03/28 03:12:39;;;;;;;;;;;;;;;4.90;100.00;102800.31;5113715;28;19920;-68
2022/03/28 03:15:05;;;;;;;;;;;;;;;4.85;100.00;102802.00;5112570;28;20264;-68
2022/03/28 03:17:30;;;;;;;;;;;;;;;4.84;100.00;102800.25;5112445;28;20388;-69
2022/03/28 03:19:55;;;;;;;;;;;;;;;4.83;100.00;102796.72;5132157;28;20309;-69
2022/03/28 03:22:20;;;;;;;;;;;;;;;4.83;100.00;102801.97;5134328;28;19922;-69
2022/03/28 03:24:46;;;;;;;;;;;;;;;4.80;100.00;102804.56;5134344;28;19916;-69
2022/03/28 03:27:12;;;;;;;;;;;;;;;4.77;100.00;102804.53;5115908;28;19916;-69
2022/03/28 03:29:37;;;;;;;;;;;;;;;4.71;100.00;102804.47;5134234;28;19998;-69
2022/03/28 03:32:03;;;;;;;;;;;;;;;4.71;100.00;102804.47;5115906;28;20366;-69
2022/03/28 03:34:29;;;;;;;;;;;;;;;4.73;100.00;102792.19;5134065;28;19949;-69
2022/03/28 03:36:54;;;;;;;;;;;;;;;4.69;100.00;102795.66;5134484;28;19923;-68
2022/03/28 03:39:22;;;;;;;;;;;;;;;4.67;100.00;102792.13;5136681;27;20282;-68
2022/03/28 03:41:47;;;;;;;;;;;;;;;4.67;100.00;102795.66;5138198;27;19939;-69
2022/03/28 03:44:12;;;;;;;;;;;;;;;4.64;100.00;102792.97;5119637;27;20366;-69
2022/03/28 03:46:38;;;;;;;;;;;;;;;4.63;100.00;102795.59;5138356;27;19995;-68
2022/03/28 03:49:03;;;;;;;;;;;;;;;4.57;100.00;102791.13;5119405;27;19938;-69
2022/03/28 03:51:28;;;;;;;;;;;;;;;4.56;100.00;102793.75;5119432;27;20019;-69
2022/03/28 03:53:54;;;;;;;;;;;;;;;4.53;100.00;102781.44;5119385;27;19915;-69
2022/03/28 03:56:19;;;;;;;;;;;;;;;4.55;100.00;102781.47;5137446;27;19915;-69
2022/03/28 03:58:44;;;;;;;;;;;;;;;4.52;100.00;102784.06;5137543;27;19922;-69
2022/03/28 04:01:09;;;;;;;;;;;;;;;4.48;100.00;102783.13;5119229;27;20030;-69
2022/03/28 04:03:35;;;;;;;;;;;;;;;4.47;100.00;102775.22;5119128;27;19915;-68
2022/03/28 04:06:00;;;;;;;;;;;;;;;4.45;100.00;102771.66;5119133;27;19916;-69
2022/03/28 04:08:27;;;;;;;;;;;;;;;4.46;100.00;102779.56;5137327;27;19960;-69
2022/03/28 04:10:52;;;;;;;;;;;;;;;4.58;100.00;102776.22;5118560;27;19920;-68
2022/03/28 04:13:18;;;;;;;;;;;;;;;4.52;100.00;102779.66;5118783;27;19983;-69
2022/03/28 04:15:43;;;;;;;;;;;;;;;4.50;100.00;102781.41;5118874;27;20023;-68
2022/03/28 04:18:09;;;;;;;;;;;;;;;4.46;100.00;102774.31;5137244;27;20061;-68
2022/03/28 04:20:35;;;;;;;;;;;;;;;4.42;100.00;102782.16;5137736;27;19915;-68
2022/03/28 04:23:00;;;;;;;;;;;;;;;4.43;100.00;102782.16;5137567;27;19915;-69
2022/03/28 04:25:26;;;;;;;;;;;;;;;4.53;100.00;102785.81;5118990;27;19923;-68
2022/03/28 04:27:51;;;;;;;;;;;;;;;4.49;100.00;102790.13;5137595;27;19922;-72
2022/03/28 04:30:16;;;;;;;;;;;;;;;4.42;100.00;102795.31;5118690;27;19922;-69
2022/03/28 04:32:41;;;;;;;;;;;;;;;4.35;100.00;102794.34;5118841;27;19916;-71
2022/03/28 04:35:07;;;;;;;;;;;;;;;4.30;100.00;102789.88;5118683;27;19915;-70
2022/03/28 04:37:33;;;;;;;;;;;;;;;4.28;100.00;102797.75;5118499;27;20378;-70
2022/03/28 04:39:58;;;;;;;;;;;;;;;4.25;100.00;102791.56;5118360;27;20400;-71
2022/03/28 04:42:24;;;;;;;;;;;;;;;4.28;100.00;102794.25;5130764;27;19965;-71
2022/03/28 04:44:57;;;;;;;;;;;;;;;4.20;100.00;102793.25;5134081;27;19923;-71
2022/03/28 04:47:22;;;;;;;;;;;;;;;4.19;100.00;102787.09;5124614;27;19923;-71
2022/03/28 04:49:48;;;;;;;;;;;;;;;4.18;100.00;102787.06;5102586;27;20301;-70
2022/03/28 04:52:13;;;;;;;;;;;;;;;4.17;100.00;102787.94;5136679;27;19922;-69
2022/03/28 04:54:38;;;;;;;;;;;;;;;4.15;100.00;102795.81;5136234;27;20399;-70
2022/03/28 04:57:04;;;;;;;;;;;;;;;4.16;100.00;102783.56;5117402;27;19919;-70
2022/03/28 04:59:29;;;;;;;;;;;;;;;4.14;100.00;102769.50;5113065;28;19921;-69
2022/03/28 05:01:55;;;;;;;;;;;;;;;4.20;100.00;102761.69;5118112;27;19916;-70
2022/03/28 05:04:20;;;;;;;;;;;;;;;4.27;100.00;102759.16;5130940;27;19920;-69
2022/03/28 05:06:45;;;;;;;;;;;;;;;4.28;100.00;102758.31;5103013;27;20278;-69
2022/03/28 05:09:10;;;;;;;;;;;;;;;4.22;100.00;102757.34;5136237;27;19922;-69
2022/03/28 05:11:35;;;;;;;;;;;;;;;4.26;100.00;102777.53;5136215;27;19932;-69
2022/03/28 05:14:02;;;;;;;;;;;;;;;4.24;100.00;102777.53;5136019;27;19923;-69
2022/03/28 05:16:27;;;;;;;;;;;;;;;4.23;100.00;102778.41;5117419;27;19922;-69
2022/03/28 05:18:52;;;;;;;;;;;;;;;4.18;100.00;102784.44;5135721;27;19919;-69
2022/03/28 05:21:17;;;;;;;;;;;;;;;4.17;100.00;102778.31;5135784;27;19920;-70
2022/03/28 05:23:43;;;;;;;;;;;;;;;4.14;100.00;102772.13;5117121;27;19964;-69
2022/03/28 05:26:08;;;;;;;;;;;;;;;4.16;100.00;102765.16;5118103;27;19964;-70
2022/03/28 05:28:33;;;;;;;;;;;;;;;4.17;100.00;102772.16;5121471;27;19962;-71
2022/03/28 05:30:58;;;;;;;;;;;;;;;4.13;100.00;102779.13;5116948;27;20017;-70
2022/03/28 05:33:24;;;;;;;;;;;;;;;4.16;100.00;102783.56;5100137;27;19919;-70
2022/03/28 05:35:55;;;;;;;;;;;;;;;4.14;100.00;102774.75;5117161;27;19919;-70
2022/03/28 05:38:28;;;;;;;;;;;;;;;4.14;100.00;102782.66;5117136;27;20047;-70
2022/03/28 05:40:56;;;;;;;;;;;;;;;4.14;100.00;102782.66;5135792;27;19916;-70
2022/03/28 05:46:44;;;;;;;;;;;;;;;4.17;100.00;102772.16;5135414;27;20048;-70
2022/03/28 05:49:10;;;;;;;;;;;;;;;4.17;100.00;102765.16;5117869;27;19924;-73
2022/03/28 05:51:35;;;;;;;;;;;;;;;4.19;100.00;102762.56;5114147;28;19964;-70
2022/03/28 05:54:08;;;;;;;;;;;;;;;4.24;100.00;102756.47;5135093;27;19954;-70
2022/03/28 05:56:33;;;;;;;;;;;;;;;4.26;100.00;102754.75;5116813;27;19975;-70
2022/03/28 05:58:59;;;;;;;;;;;;;;;4.31;100.00;102760.09;5135413;27;19919;-70
2022/03/28 06:01:25;;;;;;;;;;;;;;;4.37;100.00;102760.16;5134162;27;19922;-70
2022/03/28 06:03:50;;;;;;;;;;;;;;;4.37;100.00;102754.91;5134728;27;19915;-69
2022/03/28 06:06:15;;;;;;;;;;;;;;;4.43;100.00;102757.59;5116439;27;19915;-70
2022/03/28 06:08:41;;;;;;;;;;;;;;;4.48;100.00;102761.19;5110096;27;19988;-72
2022/03/28 06:11:06;;;;;;;;;;;;;;;4.54;100.00;102758.63;5116476;27;19915;-69
2022/03/28 06:13:31;;;;;;;;;;;;;;;4.58;100.00;102768.34;5136337;27;20425;-69
2022/03/28 06:15:57;;;;;;;;;;;;;;;4.64;100.00;102760.50;5134903;27;19924;-69
2022/03/28 06:18:22;;;;;;;;;;;;;;;4.72;100.00;102762.38;5116017;27;19927;-69
2022/03/28 06:20:47;;;;;;;;;;;;;;;4.78;100.00;102764.19;5134736;27;20043;-68
2022/03/28 06:23:14;;;;;;;;;;;;;;;4.86;100.00;102759.00;5116724;27;20119;-68
2022/03/28 06:25:40;;;;;;;;;;;;;;;4.93;100.00;102767.00;5134768;27;20358;-69
2022/03/28 06:28:06;;;;;;;;;;;;;;;5.06;100.00;102775.91;5134824;27;19937;-68
2022/03/28 06:30:31;;;;;;;;;;;;;;;5.02;100.00;102764.47;5116413;28;19916;-69
2022/03/28 06:32:56;;;;;;;;;;;;;;;5.16;100.00;102765.47;5115751;28;19916;-70
2022/03/28 06:35:22;;;;;;;;;;;;;;;5.17;100.00;102763.75;5133297;27;19981;-69
2022/03/28 06:37:50;;;;;;;;;;;;;;;5.20;100.00;102769.03;5133363;28;20427;-70
2022/03/28 06:40:15;;;;;;;;;;;;;;;5.27;100.00;102770.84;5133230;28;19915;-70
2022/03/28 06:42:40;;;;;;;;;;;;;;;5.32;100.00;102769.13;5115088;28;20274;-70
2022/03/28 06:45:06;;;;;;;;;;;;;;;5.38;100.00;102769.19;5133529;28;19951;-69
2022/03/28 06:47:31;;;;;;;;;;;;;;;5.41;100.00;102764.84;5133709;28;20010;-70
2022/03/28 06:49:56;;;;;;;;;;;;;;;5.45;100.00;102768.41;5115349;28;19922;-69
2022/03/28 06:52:21;;;;;;;;;;;;;;;5.52;100.00;102764.94;5115352;28;19923;-69
2022/03/28 06:54:47;;;;;;;;;;;;;;;5.65;100.00;102767.69;5133726;28;20015;-70
2022/03/28 06:57:12;;;;;;;;;;;;;;;5.67;100.00;102763.28;5133729;28;20378;-70
2022/03/28 06:59:38;;;;;;;;;;;;;;;5.76;100.00;102752.84;5115426;28;20382;-70
2022/03/28 07:02:03;;;;;;;;;;;;;;;5.81;100.00;102748.50;5133644;28;20303;-69
2022/03/28 07:04:29;;;;;;;;;;;;;;;5.82;100.00;102742.38;5133485;28;19968;-70
2022/03/28 07:06:54;;;;;;;;;;;;;;;5.83;100.00;102744.13;5115110;28;19964;-69
2022/03/28 07:09:20;;;;;;;;;;;;;;;5.97;100.00;102737.19;5133597;28;19915;-70
2022/03/28 07:11:45;;;;;;;;;;;;;;;5.88;100.00;102739.75;5133487;27;19915;-70
2022/03/28 07:14:11;;;;;;;;;;;;;;;6.00;100.00;102731.06;5137346;27;19915;-70
2022/03/28 07:16:36;;;;;;;;;;;;;;;6.07;100.00;102725.81;5118958;27;19922;-69
2022/03/28 07:19:01;;;;;;;;;;;;;;;6.12;100.00;102723.19;5137250;27;19963;-69
2022/03/28 07:21:27;;;;;;;;;;;;;;;6.17;100.00;102708.28;5119286;27;20303;-69
2022/03/28 07:23:53;;;;;;;;;;;;;;;6.34;100.00;102703.06;5137299;27;19919;-69
2022/03/28 07:26:19;;;;;;;;;;;;;;;6.31;100.00;102703.06;5118924;27;19972;-69
2022/03/28 07:28:44;;;;;;;;;;;;;;;6.24;100.00;102700.41;5137085;27;19975;-70
2022/03/28 07:31:09;;;;;;;;;;;;;;;6.37;100.00;102689.91;5136741;27;19939;-69
2022/03/28 07:33:36;;;;;;;;;;;;;;;6.49;100.00;102680.28;5137608;27;20434;-69
2022/03/28 07:36:02;;;;;;;;;;;;;;;6.50;100.00;102675.88;5137972;27;19984;-69
2022/03/28 07:38:27;;;;;;;;;;;;;;;6.56;100.00;102675.88;5118704;27;19920;-70
2022/03/28 07:40:53;;;;;;;;;;;;;;;6.68;100.00;102665.38;5129094;27;20324;-69
2022/03/28 07:43:18;;;;;;;;;;;;;;;6.77;100.00;102658.34;5118534;27;19985;-69
2022/03/28 07:45:43;;;;;;;;;;;;;;;6.77;100.00;102644.25;5118114;27;19941;-69
2022/03/28 07:48:08;;;;;;;;;;;;;;;6.75;100.00;102635.44;5137197;27;19928;-70
2022/03/28 07:50:34;;;;;;;;;;;;;;;6.91;100.00;102631.94;5118689;27;19923;-69
2022/03/28 07:52:59;;;;;;;;;;;;;;;6.78;100.00;102614.31;5137419;27;19988;-70
2022/03/28 07:55:26;;;;;;;;;;;;;;;6.94;100.00;102605.53;5098101;28;20347;-69
2022/03/28 07:57:51;;;;;;;;;;;;;;;7.07;100.00;102602.00;5098263;28;19916;-70
2022/03/28 08:00:16;;;;;;;;;;;;;;;7.00;100.00;102600.25;5116602;28;19923;-70
2022/03/28 08:02:42;;;;;;;;;;;;;;;6.96;100.00;102602.03;5116193;28;19915;-69
2022/03/28 08:05:08;;;;;;;;;;;;;;;7.06;100.00;102605.56;5124466;27;19923;-70
2022/03/28 08:07:34;;;;;;;;;;;;;;;7.03;100.00;102600.22;5121208;27;19960;-70
2022/03/28 08:09:59;;;;;;;;;;;;;;;7.07;100.00;102588.81;5134102;27;19915;-69
2022/03/28 08:12:25;;;;;;;;;;;;;;;7.26;100.00;102587.91;5134380;27;19964;-70
2022/03/28 08:14:51;;;;;;;;;;;;;;;7.22;100.00;102586.13;5129310;27;19916;-69
2022/03/28 08:17:18;;;;;;;;;;;;;;;7.30;100.00;102582.59;5119029;27;19916;-70
2022/03/28 08:19:43;;;;;;;;;;;;;;;7.36;100.00;102576.41;5137347;27;20370;-70
2022/03/28 08:22:08;;;;;;;;;;;;;;;7.37;100.00;102580.84;5136819;27;19959;-69
2022/03/28 08:24:34;;;;;;;;;;;;;;;7.30;100.00;102576.44;5136145;27;19961;-69
2022/03/28 08:26:59;;;;;;;;;;;;;;;7.59;100.00;102577.25;5114976;27;19934;-70
2022/03/28 08:29:24;;;;;;;;;;;;;;;7.61;100.00;102572.84;5136627;27;19915;-70
2022/03/28 08:31:49;;;;;;;;;;;;;;;7.61;100.00;102564.94;5136648;27;19915;-70
2022/03/28 08:34:15;;;;;;;;;;;;;;;7.67;100.00;102563.09;5136691;27;20345;-69
2022/03/28 08:36:40;;;;;;;;;;;;;;;7.80;100.00;102553.38;5136950;27;20341;-70
2022/03/28 08:39:06;;;;;;;;;;;;;;;7.77;100.00;102548.09;5136573;27;20275;-70
2022/03/28 08:41:32;;;;;;;;;;;;;;;7.97;100.00;102548.00;5136808;27;20374;-70
2022/03/28 08:43:57;;;;;;;;;;;;;;;8.19;100.00;102539.06;5117953;27;19916;-70
2022/03/28 08:46:23;;;;;;;;;;;;;;;8.23;100.00;102541.72;5118309;27;20392;-69
2022/03/28 08:48:49;;;;;;;;;;;;;;;8.39;100.00;102534.56;5118393;27;19926;-69
2022/03/28 08:51:17;;;;;;;;;;;;;;;8.52;100.00;102523.88;5118055;27;20305;-69
2022/03/28 08:53:42;;;;;;;;;;;;;;;8.76;100.00;102533.41;5136590;27;19916;-70
2022/03/28 08:56:08;;;;;;;;;;;;;;;8.83;100.00;102520.09;5136256;27;19926;-69
2022/03/28 08:58:33;;;;;;;;;;;;;;;8.94;100.00;102522.63;5136190;27;19923;-68
2022/03/28 09:00:59;;;;;;;;;;;;;;;8.95;100.00;102519.97;5117723;27;19922;-69
2022/03/28 09:03:40;;;;;;;;;;;;;;;9.19;100.00;102514.44;5123994;27;19923;-70
2022/03/28 09:06:24;;;;;;;;;;;;;;;9.66;100.00;102519.19;5114676;27;19916;-69
2022/03/28 09:08:49;;;;;;;;;;;;;;;10.33;100.00;102513.88;5118047;27;19915;-70
2022/03/28 09:11:21;;;;;;;;;;;;;;;10.68;100.00;102520.38;5136530;27;20277;-69
2022/03/28 09:13:46;;;;;;;;;;;;;;;11.38;100.00;102520.00;5117483;27;19923;-69
2022/03/28 09:16:17;;;;;;;;;;;;;;;11.83;100.00;102508.44;5136006;27;19915;-70
2022/03/28 09:18:43;;;;;;;;;;;;;;;12.08;100.00;102507.00;5117597;27;19919;-69
2022/03/28 09:21:11;;;;;;;;;;;;;;;12.44;100.00;102499.06;5133951;27;20294;-71
2022/03/28 09:23:38;;;;;;;;;;;;;;;12.06;100.00;102492.84;5099202;28;19935;-71
2022/03/28 09:26:08;;;;;;;;;;;;;;;12.68;100.00;102490.47;5106846;27;19916;-71
2022/03/28 09:28:45;;;;;;;;;;;;;;;13.22;100.00;102483.72;5127570;27;20404;-70
2022/03/28 09:31:20;;;;;;;;;;;;;;;12.92;100.00;102487.19;5115376;27;19916;-70
2022/03/28 09:34:04;;;;;;;;;;;;;;;12.34;100.00;102488.63;5129650;27;19934;-70
2022/03/28 09:36:33;;;;;;;;;;;;;;;13.25;100.00;102488.97;5122510;27;19916;-70
2022/03/28 09:38:59;;;;;;;;;;;;;;;13.74;100.00;102494.69;5096473;28;19916;-70
2022/03/28 09:41:24;;;;;;;;;;;;;;;13.40;100.00;102484.09;5096696;28;20004;-69
2022/03/28 09:43:53;;;;;;;;;;;;;;;13.02;100.00;102475.38;5114945;28;19977;-69
2022/03/28 09:46:25;;;;;;;;;;;;;;;13.46;100.00;102473.22;5134913;27;19964;-69
2022/03/28 09:48:51;;;;;;;;;;;;;;;14.09;100.00;102464.22;5128743;27;20282;-69
2022/03/28 09:51:18;;;;;;;;;;;;;;;14.20;100.00;102457.59;5117535;27;19923;-69
2022/03/28 09:53:43;;;;;;;;;;;;;;;14.02;100.00;102460.84;5129222;27;20010;-69
2022/03/28 09:56:09;;;;;;;;;;;;;;;14.43;100.00;102440.84;5123385;27;19955;-70
2022/03/28 09:58:42;;;;;;;;;;;;;;;14.53;100.00;102444.97;5114645;28;19920;-69
2022/03/28 10:01:18;;;;;;;;;;;;;;;14.10;100.00;102450.81;5096741;28;19919;-69
2022/03/28 10:04:05;;;;;;;;;;;;;;;15.44;100.00;102447.97;5124369;27;19987;-69
2022/03/28 10:06:31;;;;;;;;;;;;;;;16.48;100.00;102432.16;5121700;27;20010;-69
2022/03/28 10:08:56;;;;;;;;;;;;;;;16.43;100.00;102425.22;5134037;27;19967;-70
2022/03/28 10:11:21;;;;;;;;;;;;;;;16.26;100.00;102428.56;5114494;28;19966;-69
2022/03/28 10:13:47;;;;;;;;;;;;;;;16.55;100.00;102422.91;5097315;28;20006;-70
2022/03/28 10:16:12;;;;;;;;;;;;;;;16.90;100.00;102424.09;5115619;28;19916;-70
2022/03/28 10:18:39;;;;;;;;;;;;;;;17.98;100.00;102408.28;5114772;28;19923;-70
2022/03/28 10:21:15;;;;;;;;;;;;;;;17.16;100.00;102409.50;5114445;28;19922;-71
2022/03/28 10:23:44;;;;;;;;;;;;;;;17.18;100.00;102421.91;5113975;27;20328;-70
2022/03/28 10:26:10;;;;;;;;;;;;;;;16.81;100.00;102409.25;5114259;28;20448;-70
2022/03/28 10:28:35;;;;;;;;;;;;;;;16.24;100.00;102405.47;5134545;27;19915;-70
2022/03/28 10:31:07;;;;;;;;;;;;;;;17.90;100.00;102407.78;5134329;27;19916;-70
2022/03/28 10:33:32;;;;;;;;;;;;;;;18.10;100.00;102396.94;5134588;27;19922;-71
2022/03/28 10:35:57;;;;;;;;;;;;;;;18.48;100.00;102386.97;5106303;28;19923;-70
2022/03/28 10:38:23;;;;;;;;;;;;;;;18.19;100.00;102383.03;5114224;28;19922;-70
2022/03/28 10:41:00;;;;;;;;;;;;;;;19.06;100.00;102385.69;5113656;28;19998;-70
2022/03/28 10:43:29;;;;;;;;;;;;;;;20.13;100.00;102385.03;5113419;28;19922;-70
2022/03/28 10:45:59;;;;;;;;;;;;;;;19.61;100.00;102388.94;5113868;28;20370;-69
2022/03/28 10:48:33;;;;;;;;;;;;;;;19.76;100.00;102380.00;5117277;28;19916;-69
2022/03/28 10:51:03;;;;;;;;;;;;;;;20.04;100.00;102380.19;5100120;28;19927;-70
2022/03/28 10:53:30;;;;;;;;;;;;;;;19.43;100.00;102380.06;5118355;28;20022;-69
2022/03/28 10:55:59;;;;;;;;;;;;;;;20.65;100.00;102375.63;5118026;28;19920;-69
2022/03/28 10:58:26;;;;;;;;;;;;;;;21.08;100.00;102380.16;5118096;28;20317;-69
2022/03/28 11:01:13;;;;;;;;;;;;;;;20.20;100.00;102364.84;5117908;28;20026;-70
2022/03/28 11:03:44;;;;;;;;;;;;;;;21.43;100.00;102359.03;5117687;28;20006;-69
2022/03/28 11:06:09;;;;;;;;;;;;;;;21.32;100.00;102363.41;5136486;27;20021;-70
2022/03/28 11:08:36;;;;;;;;;;;;;;;22.19;100.00;102360.31;5120273;27;19961;-71
2022/03/28 11:11:21;;;;;;;;;;;;;;;22.49;100.00;102366.38;5138374;27;19915;-70
2022/03/28 11:14:05;;;;;;;;;;;;;;;21.76;100.00;102366.84;5138068;27;20270;-70
2022/03/28 11:16:42;;;;;;;;;;;;;;;22.66;100.00;102363.41;5137375;27;19915;-70
2022/03/28 11:19:26;;;;;;;;;;;;;;;21.47;100.00;102359.69;5134534;27;19934;-71
2022/03/28 11:22:11;;;;;;;;;;;;;;;23.81;100.00;102367.69;5137976;27;19915;-70
2022/03/28 11:24:54;;;;;;;;;;;;;;;23.32;100.00;102361.41;5119607;27;19915;-70
2022/03/28 11:27:24;;;;;;;;;;;;;;;24.53;100.00;102374.03;5127025;27;19924;-70
2022/03/28 11:29:49;;;;;;;;;;;;;;;24.08;100.00;102360.25;5124433;27;19920;-71
2022/03/28 11:32:16;;;;;;;;;;;;;;;22.76;100.00;102361.81;5130645;27;20274;-71
2022/03/28 11:34:49;;;;;;;;;;;;;;;24.36;100.00;102361.75;5131184;27;19976;-71
2022/03/28 11:37:14;;;;;;;;;;;;;;;24.13;100.00;102352.63;5123068;27;19970;-71
2022/03/28 11:39:58;;;;;;;;;;;;;;;24.88;100.00;102370.34;5118471;27;19915;-72
2022/03/28 11:42:24;;;;;;;;;;;;;;;25.21;100.00;102364.09;5117005;27;19919;-70
2022/03/28 11:44:49;;;;;;;;;;;;;;;25.16;100.00;102352.72;5139456;27;19939;-71
2022/03/28 11:47:17;;;;;;;;;;;;;;;24.46;100.00;102346.47;5121200;27;19915;-72
2022/03/28 11:49:51;;;;;;;;;;;;;;;26.14;100.00;102353.66;5119747;27;19916;-72
2022/03/28 11:52:20;;;;;;;;;;;;;;;25.63;100.00;102340.72;5135095;27;19919;-73
2022/03/28 11:54:46;;;;;;;;;;;;;;;25.90;100.00;102339.34;5138515;27;20502;-72
2022/03/28 12:00:11;;;;;;;;;;;;;;;27.19;100.00;102334.47;5137016;27;19922;-72
2022/03/28 12:02:45;;;;;;;;;;;;;;;27.63;100.00;102337.72;5134614;27;20107;-72
2022/03/28 12:05:10;;;;;;;;;;;;;;;26.30;100.00;102318.66;5138480;27;20084;-72
2022/03/28 12:07:35;;;;;;;;;;;;;;;25.98;100.00;102323.22;5119886;27;19962;-72
2022/03/28 12:10:00;;;;;;;;;;;;;;;27.16;100.00;102313.81;5117443;27;19923;-75
2022/03/28 12:12:26;;;;;;;;;;;;;;;27.84;100.00;102324.84;5099414;28;19916;-72
2022/03/28 12:14:51;;;;;;;;;;;;;;;28.24;100.00;102313.81;5116736;28;19926;-72
2022/03/28 12:17:23;;;;;;;;;;;;;;;27.84;100.00;102307.59;5117198;28;19916;-72
2022/03/28 12:19:59;;;;;;;;;;;;;;;29.19;100.00;102307.38;5120673;28;20278;-72
2022/03/28 12:22:25;;;;;;;;;;;;;;;28.39;100.00;102306.94;5102401;27;19920;-73
2022/03/28 12:24:53;;;;;;;;;;;;;;;28.11;100.00;102299.59;5122155;27;19927;-71
2022/03/28 12:27:19;;;;;;;;;;;;;;;29.97;100.00;102301.34;5116253;27;20370;-72
2022/03/28 12:29:44;;;;;;;;;;;;;;;28.05;100.00;102292.84;5137024;27;19922;-72
2022/03/28 12:32:13;;;;;;;;;;;;;;;28.12;100.00;102296.72;5117050;27;20278;-72
2022/03/28 12:34:39;;;;;;;;;;;;;;;28.60;100.00;102298.59;5116207;28;19968;-71
2022/03/28 12:37:04;;;;;;;;;;;;;;;25.80;100.00;102283.91;5127891;27;19998;-72
2022/03/28 12:39:30;;;;;;;;;;;;;;;24.64;100.00;102277.13;5132825;27;20015;-72